Time;durP1;ratioP1;P1;durP2;ratioP2;P2;SDS_P1;SDS_P2;PMS_P1;PMS_P2;Temp;Humidity;BMP_temperature;BMP_pressure;BME280_temperature;BME280_humidity;BME280_pressure;Samples;Min_cycle;Max_cycle;Signal;HPM_P1;HPM_P2
2023/04/17 00:02:16;;;;;;;16.93;13.83;;;;;;;8.89;95.75;101629.84;4977564;28;20245;-81
2023/04/17 00:04:45;;;;;;;20.60;13.80;;;;;;;8.86;96.29;101632.63;4981301;28;20217;-82
2023/04/17 00:07:11;;;;;;;17.23;14.73;;;;;;;8.81;95.17;101621.31;4977580;28;20247;-83
2023/04/17 00:09:38;;;;;;;16.37;14.13;;;;;;;8.79;95.67;101625.81;4977578;28;20211;-81
2023/04/17 00:12:04;;;;;;;18.90;13.77;;;;;;;8.80;95.48;101629.34;4975613;28;20232;-83
2023/04/17 00:14:31;;;;;;;18.43;14.50;;;;;;;8.78;96.00;101632.06;4977193;28;20201;-81
2023/04/17 00:16:57;;;;;;;17.10;14.70;;;;;;;8.78;95.46;101628.56;4976844;28;20563;-82
2023/04/17 00:19:24;;;;;;;18.17;14.27;;;;;;;8.75;95.36;101626.88;4979751;28;20683;-82
2023/04/17 00:21:51;;;;;;;15.77;14.03;;;;;;;8.72;95.81;101626.16;4981096;28;20251;-81
2023/04/17 00:24:18;;;;;;;20.00;15.07;;;;;;;8.70;95.20;101623.53;4974590;28;20215;-82
2023/04/17 00:26:44;;;;;;;17.17;13.77;;;;;;;8.69;95.68;101627.13;4975266;28;20788;-82
2023/04/17 00:29:11;;;;;;;16.40;14.40;;;;;;;8.67;95.48;101632.50;4975872;28;20208;-81
2023/04/17 00:31:37;;;;;;;17.77;14.60;;;;;;;8.65;95.11;101622.84;4975938;28;22200;-82
2023/04/17 00:34:04;;;;;;;16.57;14.53;;;;;;;8.60;95.65;101625.69;4975387;28;20593;-81
2023/04/17 00:36:31;;;;;;;16.67;14.87;;;;;;;8.61;95.42;101634.50;4977448;28;20205;-81
2023/04/17 00:38:59;;;;;;;18.17;14.93;;;;;;;8.58;95.85;101629.34;4979258;28;20651;-82
2023/04/17 00:41:25;;;;;;;17.27;14.10;;;;;;;8.55;95.23;101630.34;4975357;28;20236;-82
2023/04/17 00:43:52;;;;;;;17.67;14.00;;;;;;;8.52;95.57;101638.41;4980025;28;20212;-81
2023/04/17 00:46:18;;;;;;;15.10;13.33;;;;;;;8.49;95.59;101632.34;4973753;28;20238;-82
2023/04/17 00:48:45;;;;;;;20.17;14.23;;;;;;;8.46;95.38;101635.13;4975850;28;20215;-81
2023/04/17 00:51:12;;;;;;;20.87;15.17;;;;;;;8.45;95.79;101638.69;4971884;28;20228;-82
2023/04/17 00:53:39;;;;;;;19.83;14.83;;;;;;;8.43;95.20;101645.84;4972872;28;20291;-80
2023/04/17 00:56:07;;;;;;;19.83;14.47;;;;;;;8.42;95.73;101638.84;4978348;28;20205;-80
2023/04/17 00:58:36;;;;;;;17.33;14.13;;;;;;;8.41;96.17;101639.78;4967065;28;20601;-81
2023/04/17 01:01:04;;;;;;;16.97;14.20;;;;;;;8.41;96.17;101637.13;4976688;28;20236;-81
2023/04/17 01:03:31;;;;;;;15.40;13.80;;;;;;;8.38;95.29;101646.06;4984274;28;20208;-81
2023/04/17 01:05:58;;;;;;;17.57;14.40;;;;;;;8.37;95.18;101635.50;4981200;28;20663;-80
2023/04/17 01:08:25;;;;;;;16.53;14.33;;;;;;;8.33;95.00;101625.00;4984452;28;20622;-79
2023/04/17 01:10:52;;;;;;;16.80;14.13;;;;;;;8.32;96.09;101633.88;4978443;28;20224;-80
2023/04/17 01:13:20;;;;;;;15.70;13.57;;;;;;;8.32;95.96;101636.53;4975284;28;20208;-80
2023/04/17 01:15:46;;;;;;;16.13;14.23;;;;;;;8.30;95.68;101635.69;4975504;28;20678;-79
2023/04/17 01:18:13;;;;;;;21.17;15.80;;;;;;;8.29;96.04;101633.94;4975197;28;20204;-80
2023/04/17 01:20:39;;;;;;;20.50;14.57;;;;;;;8.26;95.63;101634.06;4987855;28;20237;-79
2023/04/17 01:23:06;;;;;;;19.33;15.07;;;;;;;8.26;95.58;101643.81;4977758;28;20670;-79
2023/04/17 01:25:34;;;;;;;17.47;14.30;;;;;;;8.25;96.00;101644.72;4975101;28;20586;-79
2023/04/17 01:28:01;;;;;;;16.20;13.80;;;;;;;8.22;95.73;101642.22;4983824;28;20263;-79
2023/04/17 01:30:27;;;;;;;18.57;15.20;;;;;;;8.20;95.77;101644.94;4975538;28;20236;-79
2023/04/17 01:32:55;;;;;;;19.43;14.40;;;;;;;8.19;95.84;101642.34;4991472;28;20607;-79
2023/04/17 01:35:22;;;;;;;17.80;14.27;;;;;;;8.17;95.90;101645.03;4975167;28;20251;-79
2023/04/17 01:37:48;;;;;;;18.30;14.33;;;;;;;8.14;95.55;101647.81;4982240;28;20228;-79
2023/04/17 01:40:15;;;;;;;22.50;15.07;;;;;;;8.12;94.95;101646.13;4976891;28;20207;-79
2023/04/17 01:42:43;;;;;;;16.60;14.63;;;;;;;8.09;95.75;101652.41;4974043;28;20224;-79
2023/04/17 01:45:10;;;;;;;17.20;14.97;;;;;;;8.08;95.82;101653.31;4974097;28;20741;-80
2023/04/17 01:47:36;;;;;;;19.03;13.93;;;;;;;8.07;95.58;101646.28;4981088;28;20216;-79
2023/04/17 01:50:03;;;;;;;18.67;14.70;;;;;;;8.07;95.45;101653.38;4991056;28;20219;-80
2023/04/17 01:52:30;;;;;;;21.27;15.70;;;;;;;8.05;95.28;101658.78;4973906;28;20239;-80
2023/04/17 01:54:56;;;;;;;18.40;14.43;;;;;;;8.04;95.65;101649.09;4978492;28;20228;-79
2023/04/17 01:57:22;;;;;;;18.37;15.07;;;;;;;8.02;95.78;101650.94;4989932;28;20215;-79
2023/04/17 01:59:50;;;;;;;17.17;15.30;;;;;;;8.00;95.71;101658.06;4970001;28;20208;-79
2023/04/17 02:02:17;;;;;;;16.17;14.47;;;;;;;7.96;95.44;101656.44;4973381;28;20239;-79
2023/04/17 02:04:43;;;;;;;18.20;14.87;;;;;;;7.95;95.86;101652.94;4973906;28;20212;-79
2023/04/17 02:07:10;;;;;;;20.73;14.93;;;;;;;7.93;95.58;101653.91;4973553;28;20226;-79
2023/04/17 02:09:36;;;;;;;19.73;14.30;;;;;;;7.92;95.48;101658.34;4972876;28;20204;-79
2023/04/17 02:12:03;;;;;;;17.17;14.37;;;;;;;7.89;95.82;101665.53;4974837;28;20753;-78
2023/04/17 02:14:30;;;;;;;20.00;15.93;;;;;;;7.88;95.70;101658.53;4968027;28;20213;-79
2023/04/17 02:16:57;;;;;;;20.63;15.27;;;;;;;7.86;95.33;101663.88;4970733;28;20215;-79
2023/04/17 02:19:24;;;;;;;20.27;14.83;;;;;;;7.86;96.20;101665.66;4969603;28;20293;-79
2023/04/17 02:21:50;;;;;;;16.73;14.33;;;;;;;7.86;96.33;101665.66;4973616;28;20278;-79
2023/04/17 02:24:17;;;;;;;18.77;15.27;;;;;;;7.85;96.12;101669.25;4975765;28;20216;-79
2023/04/17 02:26:43;;;;;;;18.53;15.10;;;;;;;7.85;95.98;101669.25;4977746;28;20204;-80
2023/04/17 02:29:10;;;;;;;19.40;15.63;;;;;;;7.85;96.39;101666.59;4972891;28;20283;-80
2023/04/17 02:31:36;;;;;;;18.13;15.07;;;;;;;7.83;96.66;101656.03;4973331;28;20224;-79
2023/04/17 02:34:04;;;;;;;17.97;15.73;;;;;;;7.84;96.33;101670.16;4973823;28;20216;-79
2023/04/17 02:36:31;;;;;;;17.57;15.77;;;;;;;7.83;95.98;101668.44;4983538;28;20211;-80
2023/04/17 02:38:57;;;;;;;23.13;16.97;;;;;;;7.82;96.49;101667.56;4978742;28;20606;-79
2023/04/17 02:41:23;;;;;;;18.23;15.40;;;;;;;7.80;95.84;101664.09;4972176;28;20232;-78
2023/04/17 02:43:50;;;;;;;19.60;15.60;;;;;;;7.78;96.78;101654.44;4972667;28;20204;-79
2023/04/17 02:46:16;;;;;;;22.50;15.67;;;;;;;7.75;96.40;101655.44;4972586;28;20693;-78
2023/04/17 02:48:43;;;;;;;20.77;15.90;;;;;;;7.74;96.68;101660.78;4979483;28;20658;-78
2023/04/17 02:51:11;;;;;;;20.97;16.37;;;;;;;7.73;96.29;101669.66;4978331;28;20223;-79
2023/04/17 02:53:37;;;;;;;17.63;15.17;;;;;;;7.73;96.06;101667.00;4970120;28;20211;-79
2023/04/17 02:56:04;;;;;;;18.87;16.10;;;;;;;7.71;96.15;101668.84;4960345;28;20208;-79
2023/04/17 02:58:31;;;;;;;19.83;15.67;;;;;;;7.71;96.87;101668.84;4973609;28;20576;-79
2023/04/17 03:01:01;;;;;;;21.33;15.70;;;;;;;7.69;96.69;101666.28;4983323;28;20243;-78
2023/04/17 03:03:29;;;;;;;19.50;15.17;;;;;;;7.68;97.10;101666.31;4964279;28;20216;-79
2023/04/17 03:05:56;;;;;;;17.43;15.50;;;;;;;7.66;96.69;101667.25;4972852;28;20204;-78
2023/04/17 03:08:24;;;;;;;19.60;15.67;;;;;;;7.66;96.40;101669.88;4976150;28;20211;-79
2023/04/17 03:10:50;;;;;;;19.10;17.10;;;;;;;7.64;96.57;101668.22;4973986;28;20239;-79
2023/04/17 03:13:17;;;;;;;21.30;17.07;;;;;;;7.63;96.77;101680.59;4982996;28;20227;-79
2023/04/17 03:15:43;;;;;;;16.90;15.07;;;;;;;7.61;96.61;101673.59;4972256;28;20658;-80
2023/04/17 03:18:10;;;;;;;22.87;15.80;;;;;;;7.59;96.79;101671.00;4973521;28;20215;-80
2023/04/17 03:20:36;;;;;;;24.57;17.03;;;;;;;7.58;96.47;101671.94;4973179;28;20228;-79
2023/04/17 03:23:02;;;;;;;20.40;16.37;;;;;;;7.56;97.26;101679.06;4966790;28;20228;-79
2023/04/17 03:25:30;;;;;;;24.57;18.47;;;;;;;7.55;96.44;101681.75;4978410;28;20218;-79
2023/04/17 03:27:57;;;;;;;23.73;18.27;;;;;;;7.54;96.82;101685.34;4983619;28;20212;-79
2023/04/17 03:30:23;;;;;;;23.07;17.47;;;;;;;7.51;96.45;101683.69;4980509;28;20216;-79
2023/04/17 03:32:50;;;;;;;20.83;16.93;;;;;;;7.49;97.12;101690.81;4976197;28;20755;-79
2023/04/17 03:35:16;;;;;;;21.10;15.80;;;;;;;7.47;97.37;101695.31;4979730;28;20238;-79
2023/04/17 03:37:43;;;;;;;19.63;16.53;;;;;;;7.46;96.94;101684.75;4973067;28;20689;-80
2023/04/17 03:40:10;;;;;;;18.40;15.70;;;;;;;7.44;97.41;101690.09;4971953;28;20616;-79
2023/04/17 03:42:38;;;;;;;22.07;16.77;;;;;;;7.42;96.57;101683.97;4966680;28;20654;-79
2023/04/17 03:45:06;;;;;;;20.77;16.00;;;;;;;7.41;96.64;101692.84;4975956;28;20207;-78
2023/04/17 03:47:32;;;;;;;19.07;15.73;;;;;;;7.39;96.67;101691.16;4984472;28;20211;-79
2023/04/17 03:49:59;;;;;;;20.37;15.67;;;;;;;7.37;96.63;101693.84;4976157;28;20208;-79
2023/04/17 03:52:25;;;;;;;20.30;17.20;;;;;;;7.36;96.96;101694.78;4979881;28;20228;-80
2023/04/17 03:54:52;;;;;;;20.50;16.33;;;;;;;7.35;97.67;101697.47;4970965;28;20718;-79
2023/04/17 03:57:18;;;;;;;20.83;16.17;;;;;;;7.33;97.14;101697.56;4978040;28;20211;-79
2023/04/17 03:59:46;;;;;;;21.73;17.53;;;;;;;7.32;96.88;101701.13;4978677;28;20208;-79
2023/04/17 04:02:12;;;;;;;21.23;16.23;;;;;;;7.31;96.89;101699.38;4972024;28;20228;-79
2023/04/17 04:04:39;;;;;;;23.53;16.57;;;;;;;7.28;97.36;101702.13;4976915;28;20666;-78
2023/04/17 04:07:05;;;;;;;22.43;16.73;;;;;;;7.27;97.51;101705.69;4974352;28;20228;-79
2023/04/17 04:09:32;;;;;;;21.17;16.53;;;;;;;7.23;96.80;101699.63;4972253;28;20208;-80
2023/04/17 04:11:58;;;;;;;25.23;16.47;;;;;;;7.22;97.32;101697.03;4972262;28;20231;-79
2023/04/17 04:14:25;;;;;;;21.47;16.00;;;;;;;7.21;97.72;101713.84;4979976;28;20204;-79
2023/04/17 04:16:52;;;;;;;21.67;16.07;;;;;;;7.18;97.28;101708.63;4977872;28;20222;-80
2023/04/17 04:19:19;;;;;;;23.33;16.33;;;;;;;7.18;97.36;101708.63;4980239;28;20200;-80
2023/04/17 04:21:45;;;;;;;23.57;16.40;;;;;;;7.15;97.79;101708.75;4977527;28;20235;-79
2023/04/17 04:24:13;;;;;;;21.00;16.80;;;;;;;7.14;97.71;101714.97;4966193;28;20216;-79
2023/04/17 04:26:40;;;;;;;19.47;16.03;;;;;;;7.12;98.05;101711.50;4967747;28;20220;-80
2023/04/17 04:29:07;;;;;;;22.37;15.53;;;;;;;7.11;97.24;101713.28;4973506;28;20208;-80
2023/04/17 04:31:34;;;;;;;22.53;16.50;;;;;;;7.11;98.08;101715.06;4981994;28;20334;-80
2023/04/17 04:34:02;;;;;;;18.50;16.17;;;;;;;7.11;97.67;101723.88;4975307;28;20275;-81
2023/04/17 04:36:28;;;;;;;23.40;16.70;;;;;;;7.09;98.41;101715.09;4966862;28;20601;-82
2023/04/17 04:38:59;;;;;;;19.23;15.23;;;;;;;7.09;98.29;101714.25;4978933;28;20212;-80
2023/04/17 04:41:26;;;;;;;23.07;16.53;;;;;;;7.09;98.23;101725.69;4966052;28;20228;-80
2023/04/17 04:43:53;;;;;;;22.00;16.23;;;;;;;7.08;98.38;101723.97;4972676;28;20204;-80
2023/04/17 04:46:20;;;;;;;20.53;16.60;;;;;;;7.08;98.33;101721.31;4980927;28;20598;-81
2023/04/17 04:48:46;;;;;;;22.50;15.97;;;;;;;7.09;98.77;101730.13;4979992;28;20655;-80
2023/04/17 04:51:14;;;;;;;22.87;16.70;;;;;;;7.08;98.77;101728.41;4979875;28;20596;-80
2023/04/17 04:53:41;;;;;;;23.10;16.40;;;;;;;7.07;98.18;101731.97;4975441;28;20701;-80
2023/04/17 04:56:08;;;;;;;22.33;16.60;;;;;;;7.08;98.17;101739.00;4973881;28;20690;-81
2023/04/17 04:58:34;;;;;;;22.40;16.70;;;;;;;7.07;98.55;101735.47;4972202;28;20212;-80
2023/04/17 05:01:00;;;;;;;21.77;16.40;;;;;;;7.07;98.77;101737.25;4971280;28;20750;-81
2023/04/17 05:03:27;;;;;;;22.43;17.07;;;;;;;7.06;99.04;101735.53;4968911;28;20231;-81
2023/04/17 05:05:53;;;;;;;20.67;15.30;;;;;;;7.06;99.13;101740.81;4974090;28;20215;-80
2023/04/17 05:08:21;;;;;;;23.67;16.73;;;;;;;7.06;99.31;101740.81;4968693;28;20335;-80
2023/04/17 05:10:48;;;;;;;23.20;16.03;;;;;;;7.06;98.87;101746.97;4972889;28;20705;-80
2023/04/17 05:13:14;;;;;;;26.70;16.67;;;;;;;7.06;98.96;101746.97;4975184;28;20208;-80
2023/04/17 05:15:41;;;;;;;26.73;17.70;;;;;;;7.07;99.62;101755.78;4970255;28;20255;-80
2023/04/17 05:18:07;;;;;;;41.10;23.47;;;;;;;7.07;99.28;101759.31;4975381;28;20214;-81
2023/04/17 05:20:35;;;;;;;108.33;42.73;;;;;;;7.09;98.94;101759.28;4978527;28;20228;-80
2023/04/17 05:23:01;;;;;;;138.83;54.90;;;;;;;7.09;99.63;101761.91;4971896;28;20255;-80
2023/04/17 05:25:29;;;;;;;90.00;38.10;;;;;;;7.09;98.94;101765.44;4969842;28;20552;-81
2023/04/17 05:27:55;;;;;;;101.17;44.47;;;;;;;7.11;99.72;101768.91;4974764;28;20229;-79
2023/04/17 05:30:22;;;;;;;29.00;17.47;;;;;;;7.12;99.50;101772.41;4973406;28;20208;-79
2023/04/17 05:32:48;;;;;;;22.27;16.70;;;;;;;7.12;99.02;101777.72;4970857;28;20219;-79
2023/04/17 05:35:15;;;;;;;21.53;16.37;;;;;;;7.13;99.93;101785.63;4970187;28;20212;-79
2023/04/17 05:37:41;;;;;;;23.53;16.83;;;;;;;7.14;100.00;101782.06;4972259;28;20206;-80
2023/04/17 05:40:09;;;;;;;27.47;15.37;;;;;;;7.15;99.55;101772.34;4972453;28;20215;-80
2023/04/17 05:42:37;;;;;;;22.87;16.07;;;;;;;7.16;99.50;101782.88;4969342;28;20227;-80
2023/04/17 05:45:04;;;;;;;18.40;15.13;;;;;;;7.17;99.42;101781.94;4969769;28;20691;-80
2023/04/17 05:47:31;;;;;;;23.13;15.57;;;;;;;7.19;99.05;101781.91;4974362;28;20673;-80
2023/04/17 05:49:58;;;;;;;19.43;15.90;;;;;;;7.20;98.80;101788.94;4977397;28;20204;-80
2023/04/17 05:52:25;;;;;;;21.53;16.53;;;;;;;7.21;99.17;101790.66;4970968;28;20273;-80
2023/04/17 05:54:52;;;;;;;25.33;14.83;;;;;;;7.22;99.17;101789.75;4970570;28;20205;-80
2023/04/17 05:57:18;;;;;;;26.97;15.27;;;;;;;7.23;99.34;101787.06;4969820;28;20201;-80
2023/04/17 05:59:47;;;;;;;24.80;16.00;;;;;;;7.26;98.81;101786.09;4973078;28;20204;-80
2023/04/17 06:02:14;;;;;;;21.43;14.83;;;;;;;7.27;99.00;101794.00;4974173;28;20316;-81
2023/04/17 06:04:41;;;;;;;22.47;15.00;;;;;;;7.30;98.31;101796.56;4975567;28;20200;-82
2023/04/17 06:07:08;;;;;;;21.97;15.10;;;;;;;7.30;98.67;101798.34;4971755;28;20220;-81
2023/04/17 06:09:35;;;;;;;18.77;14.73;;;;;;;7.31;98.30;101797.44;4978388;28;20219;-81
2023/04/17 06:12:02;;;;;;;17.47;14.50;;;;;;;7.34;98.74;101805.28;4971616;28;20228;-82
2023/04/17 06:14:28;;;;;;;21.00;14.43;;;;;;;7.36;98.50;101803.44;4974035;28;20287;-81
2023/04/17 06:16:56;;;;;;;21.03;15.10;;;;;;;7.38;98.58;101804.25;4975041;28;20691;-81
2023/04/17 06:19:23;;;;;;;23.57;14.57;;;;;;;7.42;98.74;101807.69;4966072;28;20216;-80
2023/04/17 06:21:49;;;;;;;23.10;14.77;;;;;;;7.45;98.07;101803.16;4973572;28;20243;-80
2023/04/17 06:24:17;;;;;;;19.27;14.23;;;;;;;7.48;98.20;101805.72;4971022;28;20632;-81
2023/04/17 06:26:44;;;;;;;19.93;13.93;;;;;;;7.51;98.27;101802.09;4974885;28;20295;-81
2023/04/17 06:29:11;;;;;;;20.50;13.87;;;;;;;7.54;97.97;101813.44;4966647;28;20205;-81
2023/04/17 06:31:37;;;;;;;16.40;14.20;;;;;;;7.59;97.75;101813.31;4980769;28;20269;-81
2023/04/17 06:34:05;;;;;;;19.43;13.50;;;;;;;7.61;97.53;101825.59;4966111;28;20587;-80
2023/04/17 06:36:32;;;;;;;22.20;14.77;;;;;;;7.64;97.37;101825.50;4976916;28;20211;-80
2023/04/17 06:38:58;;;;;;;21.10;14.37;;;;;;;7.68;96.94;101822.75;4975677;28;20204;-81
2023/04/17 06:41:25;;;;;;;16.50;13.87;;;;;;;7.71;97.15;101825.28;4971877;28;20228;-80
2023/04/17 06:43:51;;;;;;;15.70;13.23;;;;;;;7.74;96.63;101819.88;4972245;28;20278;-80
2023/04/17 06:46:18;;;;;;;19.93;13.60;;;;;;;7.78;95.89;101833.00;4972057;28;20718;-80
2023/04/17 06:48:44;;;;;;;16.10;12.87;;;;;;;7.82;95.79;101829.34;4968475;28;20206;-82
2023/04/17 06:51:12;;;;;;;17.97;13.37;;;;;;;7.87;95.63;101834.50;4973248;28;20228;-81
2023/04/17 06:53:39;;;;;;;16.73;12.60;;;;;;;7.90;95.21;101826.41;4970396;28;20201;-81
2023/04/17 06:56:05;;;;;;;17.07;13.17;;;;;;;7.94;94.48;101828.06;4971765;28;20212;-80
2023/04/17 06:58:32;;;;;;;17.43;13.23;;;;;;;7.99;94.68;101826.13;4978864;28;20208;-82
2023/04/17 07:00:58;;;;;;;19.10;12.53;;;;;;;8.05;94.77;101827.69;4973926;28;20232;-82
2023/04/17 07:03:25;;;;;;;16.80;12.77;;;;;;;8.10;93.92;101834.56;4970973;28;20220;-81
2023/04/17 07:05:51;;;;;;;20.43;12.93;;;;;;;8.15;92.92;101826.44;4978091;28;20211;-81
2023/04/17 07:08:21;;;;;;;17.63;12.87;;;;;;;8.20;93.27;101828.03;4976744;28;20220;-81
2023/04/17 07:10:47;;;;;;;17.60;13.17;;;;;;;8.25;92.46;101834.03;4972408;28;20259;-81
2023/04/17 07:13:14;;;;;;;15.83;12.93;;;;;;;8.30;92.06;101828.56;4969047;28;20208;-81
2023/04/17 07:15:40;;;;;;;20.53;13.07;;;;;;;8.35;91.71;101837.28;4970398;28;20689;-82
2023/04/17 07:18:07;;;;;;;19.03;13.27;;;;;;;8.41;91.53;101838.88;4968162;28;20204;-82
2023/04/17 07:20:33;;;;;;;15.57;11.70;;;;;;;8.48;91.11;101841.22;4970068;28;20664;-82
2023/04/17 07:22:59;;;;;;;15.63;13.20;;;;;;;8.53;91.05;101849.91;4971830;28;20240;-82
2023/04/17 07:25:27;;;;;;;19.57;13.27;;;;;;;8.60;90.79;101846.09;4970955;28;20211;-82
2023/04/17 07:28:08;;;;;;;16.67;12.40;;;;;;;8.64;90.17;101849.50;4963419;28;20209;-82
2023/04/17 07:30:35;;;;;;;15.43;12.27;;;;;;;8.72;90.41;101851.91;4963858;28;20231;-82
2023/04/17 07:33:02;;;;;;;15.77;12.27;;;;;;;8.79;89.47;101848.94;4969330;28;20572;-82
2023/04/17 07:35:28;;;;;;;18.07;13.50;;;;;;;8.82;88.27;101845.31;4967661;28;20215;-82
2023/04/17 07:38:02;;;;;;;15.80;13.03;;;;;;;8.87;88.09;101849.53;4971865;28;20220;-82
2023/04/17 07:40:32;;;;;;;16.57;13.10;;;;;;;8.96;87.86;101853.63;4969598;28;20280;-82
2023/04/17 07:42:58;;;;;;;18.97;12.43;;;;;;;9.05;87.54;101853.28;4963861;28;20229;-81
2023/04/17 07:45:25;;;;;;;19.07;12.57;;;;;;;9.15;87.44;101851.13;4970554;28;20667;-81
2023/04/17 07:47:52;;;;;;;17.70;12.40;;;;;;;9.25;87.23;101849.88;4971392;28;20798;-82
2023/04/17 07:50:18;;;;;;;14.40;12.17;;;;;;;9.37;86.24;101852.91;4968843;28;20209;-80
2023/04/17 07:52:45;;;;;;;18.70;12.03;;;;;;;9.46;85.21;101846.38;4967219;28;20211;-81
2023/04/17 07:55:12;;;;;;;19.00;11.73;;;;;;;9.55;84.44;101846.00;4972427;28;20295;-81
2023/04/17 07:57:51;;;;;;;;;;;;;;;;;;;;;
2023/04/17 08:00:20;;;;;;;18.60;11.33;;;;;;;9.71;82.42;101855.09;4970196;28;20216;-82
2023/04/17 08:02:46;;;;;;;15.00;11.23;;;;;;;9.82;81.55;101846.69;4971246;28;20224;-82
2023/04/17 08:05:12;;;;;;;13.57;10.93;;;;;;;9.95;80.69;101849.69;4967400;28;20212;-82
2023/04/17 08:07:40;;;;;;;14.80;11.80;;;;;;;10.08;80.98;101848.25;4976005;28;20212;-83
2023/04/17 08:10:07;;;;;;;16.03;10.93;;;;;;;10.21;79.32;101861.97;4979738;28;20286;-83
2023/04/17 08:12:34;;;;;;;14.97;11.67;;;;;;;10.34;78.61;101857.84;4975502;28;20234;-83
2023/04/17 08:15:02;;;;;;;16.07;12.03;;;;;;;10.47;78.00;101850.16;4977477;28;20204;-82
2023/04/17 08:17:29;;;;;;;12.87;11.50;;;;;;;10.61;77.82;101861.06;4978371;28;20258;-82
2023/04/17 08:19:56;;;;;;;13.83;11.00;;;;;;;10.75;76.38;101861.31;4973582;28;20212;-82
2023/04/17 08:22:23;;;;;;;16.53;11.20;;;;;;;10.83;74.56;101858.31;4971744;28;20708;-83
2023/04/17 08:24:53;;;;;;;13.40;11.87;;;;;;;10.92;74.48;101856.13;4984219;28;20867;-82
2023/04/17 08:27:19;;;;;;;11.73;10.53;;;;;;;11.05;73.81;101854.63;4974141;28;20304;-84
2023/04/17 08:29:46;;;;;;;14.47;11.50;;;;;;;11.16;72.47;101855.91;4978363;28;20737;-82
2023/04/17 08:32:14;;;;;;;14.77;10.63;;;;;;;11.29;72.04;101867.72;4976727;28;20225;-83
2023/04/17 08:34:41;;;;;;;13.90;11.27;;;;;;;11.40;71.49;101858.28;4970336;28;20561;-83
2023/04/17 08:37:07;;;;;;;11.73;9.97;;;;;;;11.52;71.17;101858.63;4973204;28;20703;-82
2023/04/17 08:39:34;;;;;;;13.07;10.00;;;;;;;11.65;70.46;101873.09;4965180;28;20211;-83
2023/04/17 08:42:06;;;;;;;14.30;11.03;;;;;;;11.76;69.47;101865.50;4970787;28;20239;-82
2023/04/17 08:44:33;;;;;;;13.17;11.13;;;;;;;11.87;68.37;101864.94;4973379;28;20208;-82
2023/04/17 08:46:59;;;;;;;12.87;11.20;;;;;;;11.96;68.07;101862.72;4975949;28;20215;-82
2023/04/17 08:49:28;;;;;;;14.30;11.37;;;;;;;12.11;68.10;101861.06;4966052;28;20208;-84
2023/04/17 08:51:55;;;;;;;16.83;11.10;;;;;;;12.24;67.25;101859.50;4964985;28;20289;-82
2023/04/17 08:54:21;;;;;;;13.43;10.83;;;;;;;12.35;66.65;101857.16;4980600;28;20226;-82
2023/04/17 08:56:48;;;;;;;13.67;11.03;;;;;;;12.50;66.53;101861.69;4972731;28;20212;-83
2023/04/17 08:59:15;;;;;;;15.70;11.20;;;;;;;12.62;65.99;101856.66;4974465;28;20213;-83
2023/04/17 09:02:00;;;;;;;17.10;11.40;;;;;;;12.70;65.68;101863.34;4972465;28;20813;-82
2023/04/17 09:04:39;;;;;;;13.57;11.27;;;;;;;12.84;65.05;101862.59;4977044;28;20268;-83
2023/04/17 09:07:06;;;;;;;12.17;10.53;;;;;;;12.92;63.40;101860.34;4971903;28;20209;-82
2023/04/17 09:09:54;;;;;;;13.93;11.07;;;;;;;13.01;62.40;101856.34;4974888;28;20214;-83
2023/04/17 09:12:22;;;;;;;14.10;11.07;;;;;;;13.06;61.75;101863.16;4962039;28;20232;-82
2023/04/17 09:14:48;;;;;;;13.27;10.47;;;;;;;13.09;61.58;101867.47;4969883;28;20204;-83
2023/04/17 09:17:17;;;;;;;13.50;10.60;;;;;;;13.08;61.44;101861.25;4973400;28;20204;-83
2023/04/17 09:20:08;;;;;;;13.33;10.80;;;;;;;13.11;61.13;101860.22;4970430;28;20208;-82
2023/04/17 09:22:35;;;;;;;13.03;10.60;;;;;;;13.09;60.06;101865.66;4969901;28;20259;-83
2023/04/17 09:25:02;;;;;;;12.83;10.30;;;;;;;13.10;59.88;101864.69;4972022;28;20239;-83
2023/04/17 09:27:29;;;;;;;13.63;10.53;;;;;;;13.15;59.81;101860.00;4970350;28;20215;-82
2023/04/17 09:30:01;;;;;;;12.20;10.30;;;;;;;13.27;60.48;101850.44;4974539;28;20223;-83
2023/04/17 09:32:28;;;;;;;11.73;10.53;;;;;;;13.40;59.28;101864.88;4973971;28;20293;-82
2023/04/17 09:34:59;;;;;;;11.57;9.83;;;;;;;13.46;57.93;101851.13;4975205;28;20212;-82
2023/04/17 09:37:48;;;;;;;12.87;10.80;;;;;;;13.58;58.94;101857.63;4972050;28;20268;-82
2023/04/17 09:40:14;;;;;;;10.60;9.50;;;;;;;13.65;57.04;101859.00;4972826;28;20733;-85
2023/04/17 09:42:54;;;;;;;12.83;10.20;;;;;;;13.74;57.10;101862.97;4976401;28;20205;-83
2023/04/17 09:45:23;;;;;;;12.97;9.93;;;;;;;13.76;54.84;101861.06;4963933;28;20295;-83
2023/04/17 09:47:50;;;;;;;12.67;10.23;;;;;;;13.72;54.63;101860.38;4973062;28;20215;-82
2023/04/17 09:50:20;;;;;;;13.70;9.83;;;;;;;13.70;54.45;101870.31;4971329;28;20222;-83
2023/04/17 09:52:49;;;;;;;11.37;8.87;;;;;;;13.65;53.67;101866.16;4972821;28;20204;-82
2023/04/17 09:55:20;;;;;;;11.07;9.07;;;;;;;13.64;54.18;101861.75;4971622;28;20212;-82
2023/04/17 09:57:48;;;;;;;10.53;9.43;;;;;;;13.58;53.57;101862.13;4973748;28;20299;-82
2023/04/17 10:00:16;;;;;;;12.80;9.17;;;;;;;13.54;53.45;101864.09;4973942;28;20219;-83
2023/04/17 10:02:42;;;;;;;11.37;9.53;;;;;;;13.53;53.75;101859.69;4971030;28;20212;-82
2023/04/17 10:05:11;;;;;;;11.40;9.87;;;;;;;13.51;54.28;101854.41;4976026;28;20753;-83
2023/04/17 10:07:38;;;;;;;12.93;9.57;;;;;;;13.51;54.19;101859.78;4969800;28;20232;-82
2023/04/17 10:10:09;;;;;;;10.00;8.93;;;;;;;13.54;54.35;101858.75;4973962;28;20790;-82
2023/04/17 10:12:38;;;;;;;11.20;8.30;;;;;;;13.54;53.52;101859.59;4970059;28;20228;-84
2023/04/17 10:15:07;;;;;;;10.87;8.50;;;;;;;13.50;52.11;101857.19;4972253;28;20213;-84
2023/04/17 10:17:33;;;;;;;12.87;8.97;;;;;;;13.50;52.83;101854.50;4972653;28;20204;-82
2023/04/17 10:20:36;;;;;;;10.17;8.43;;;;;;;13.53;53.05;101857.00;4970118;28;20371;-82
2023/04/17 10:23:28;;;;;;;11.63;9.20;;;;;;;13.52;52.32;101852.59;4967528;28;20236;-82
2023/04/17 10:26:40;;;;;;;12.23;9.20;;;;;;;13.52;52.66;101849.94;4968936;28;20216;-82
2023/04/17 10:29:08;;;;;;;10.33;8.67;;;;;;;13.47;51.39;101857.34;4968875;28;20220;-84
2023/04/17 10:32:24;;;;;;;9.53;8.53;;;;;;;13.53;52.33;101849.84;4972528;28;20696;-83
2023/04/17 10:34:52;;;;;;;11.10;8.87;;;;;;;13.62;51.96;101848.44;4973061;28;20515;-82
2023/04/17 10:37:21;;;;;;;10.33;8.70;;;;;;;13.73;52.04;101848.72;4962579;28;20659;-82
2023/04/17 10:39:56;;;;;;;11.00;9.23;;;;;;;13.81;51.94;101854.47;4972260;28;20252;-85
2023/04/17 10:42:24;;;;;;;9.50;8.53;;;;;;;13.84;51.71;101854.31;4970611;28;20285;-82
2023/04/17 10:44:57;;;;;;;10.27;8.87;;;;;;;13.86;51.75;101851.53;4971528;28;20240;-82
2023/04/17 10:47:30;;;;;;;9.80;8.83;;;;;;;13.80;50.17;101850.06;4971241;28;20235;-83
2023/04/17 10:49:58;;;;;;;9.70;8.80;;;;;;;13.78;50.65;101852.00;4965598;28;20204;-83
2023/04/17 10:52:40;;;;;;;10.83;8.00;;;;;;;13.84;50.67;101854.31;4973182;28;20231;-84
2023/04/17 10:55:08;;;;;;;9.33;7.63;;;;;;;13.90;50.02;101845.94;4971092;28;20212;-82
2023/04/17 10:57:55;;;;;;;8.87;7.73;;;;;;;13.95;50.01;101843.00;4971243;28;20212;-83
2023/04/17 11:00:30;;;;;;;10.77;7.30;;;;;;;13.97;49.25;101826.81;4971912;28;20215;-82
2023/04/17 11:02:56;;;;;;;8.90;7.00;;;;;;;13.98;48.33;101839.25;4966866;28;20221;-82
2023/04/17 11:05:23;;;;;;;8.77;6.63;;;;;;;13.98;47.52;101829.38;4969628;28;20233;-82
2023/04/17 11:07:50;;;;;;;7.17;6.47;;;;;;;13.95;46.59;101839.44;4973960;28;20259;-82
2023/04/17 11:10:18;;;;;;;8.17;6.93;;;;;;;13.93;46.07;101823.47;4971760;28;20210;-82
2023/04/17 11:12:46;;;;;;;10.70;7.43;;;;;;;13.92;45.59;101835.13;4971242;28;20214;-82
2023/04/17 11:15:13;;;;;;;9.23;6.57;;;;;;;13.92;45.20;101823.56;4965104;28;20204;-82
2023/04/17 11:17:46;;;;;;;8.37;6.27;;;;;;;13.96;44.70;101825.09;4965481;28;20205;-83
2023/04/17 11:20:16;;;;;;;8.60;6.73;;;;;;;14.01;44.62;101820.31;4973338;28;20215;-82
2023/04/17 11:22:43;;;;;;;8.20;6.57;;;;;;;14.04;44.34;101825.50;4968237;28;20672;-82